Terminal Aerodrome Forecast
Issued by NWS

Home | Current Version | Previous Version | Text Only | Print | Product List | Glossary On
Versions: 1 2 3 4 5 6 7 8 9 10 11 12 13 14 15 16 17 18 19 20 21 22 23
000
FTUS46 KEKA 172330
TAFCEC
TAF
KCEC 172330Z 1800/1824 33008KT P6SM SCT120
     FM180300 32003KT 3SM BR BKN005 BKN250
     FM180600 VRB03KT 3/4SM BR BKN004
     FM180900 VRB03KT 1/4SM FG OVC002
     FM181800 18008KT P6SM SCT002=

USA.gov is the U.S. government's official web portal to all federal, state and local government web resources and services.